Time;durP1;ratioP1;P1;durP2;ratioP2;P2;SDS_P1;SDS_P2;PMS_P1;PMS_P2;Temp;Humidity;BMP_temperature;BMP_pressure;BME280_temperature;BME280_humidity;BME280_pressure;Samples;Min_cycle;Max_cycle;Signal;HPM_P1;HPM_P2
2024/03/19 00:03:21;;;;;;;15.43;13.93;;;13.70;41.10;;;;;;10384361;28;20265;-71
2024/03/19 00:08:24;;;;;;;15.40;14.00;;;13.60;41.20;;;;;;10392744;28;20951;-71
2024/03/19 00:13:26;;;;;;;17.43;15.90;;;13.60;41.50;;;;;;10378572;28;20254;-71
2024/03/19 00:18:29;;;;;;;17.30;15.80;;;13.60;41.40;;;;;;10382542;28;20267;-71
2024/03/19 00:23:34;;;;;;;17.13;15.63;;;13.60;41.50;;;;;;10386440;28;20245;-71
2024/03/19 00:28:36;;;;;;;17.37;15.70;;;13.60;41.90;;;;;;10382472;28;20258;-71
2024/03/19 00:33:39;;;;;;;17.17;15.57;;;13.50;41.70;;;;;;10400123;28;20601;-71
2024/03/19 00:38:43;;;;;;;15.03;13.73;;;13.50;41.80;;;;;;10383806;28;20768;-71
2024/03/19 00:43:45;;;;;;;17.37;15.77;;;13.50;42.10;;;;;;10399519;28;20241;-71
2024/03/19 00:48:47;;;;;;;17.90;16.40;;;13.60;41.90;;;;;;10383976;28;20323;-71
2024/03/19 00:53:50;;;;;;;16.80;15.20;;;13.60;42.00;;;;;;10390138;28;20307;-71
2024/03/19 00:58:53;;;;;;;17.80;16.20;;;13.60;42.40;;;;;;10385997;28;20295;-71
2024/03/19 01:03:55;;;;;;;15.27;13.83;;;13.70;42.10;;;;;;10383196;28;20287;-71
2024/03/19 01:08:59;;;;;;;17.23;15.70;;;13.70;42.00;;;;;;10384529;28;20272;-71
2024/03/19 01:14:01;;;;;;;16.90;15.40;;;13.70;42.30;;;;;;10375976;28;20245;-71
2024/03/19 01:19:03;;;;;;;15.87;14.47;;;13.70;41.90;;;;;;10380345;28;20723;-71
2024/03/19 01:24:07;;;;;;;16.63;15.20;;;13.70;41.90;;;;;;10383919;28;20248;-71
2024/03/19 01:29:10;;;;;;;17.37;15.80;;;13.60;42.10;;;;;;10384303;28;20253;-71
2024/03/19 01:34:12;;;;;;;18.33;16.63;;;13.70;41.80;;;;;;10392902;28;20257;-70
2024/03/19 01:39:16;;;;;;;15.97;14.53;;;13.60;41.50;;;;;;10380097;28;20250;-71
2024/03/19 01:44:18;;;;;;;15.27;13.83;;;13.60;41.80;;;;;;10395807;28;20254;-71
2024/03/19 01:49:21;;;;;;;17.33;15.50;;;13.50;41.70;;;;;;10377509;28;20315;-71
2024/03/19 01:54:26;;;;;;;16.83;15.03;;;13.50;41.60;;;;;;10380707;28;20265;-71
2024/03/19 01:59:28;;;;;;;14.40;13.10;;;13.40;41.80;;;;;;10389882;28;20249;-71
2024/03/19 02:04:30;;;;;;;15.40;14.10;;;13.30;41.70;;;;;;10388982;28;20808;-71
2024/03/19 02:09:34;;;;;;;13.47;12.37;;;13.30;41.90;;;;;;10388108;28;20864;-71
2024/03/19 02:14:36;;;;;;;13.20;12.00;;;13.30;42.10;;;;;;10391666;28;20292;-71
2024/03/19 02:19:38;;;;;;;16.47;14.73;;;13.40;42.10;;;;;;10384929;28;20272;-71
2024/03/19 02:24:43;;;;;;;17.97;16.20;;;13.40;42.10;;;;;;10389923;28;20307;-71
2024/03/19 02:29:45;;;;;;;20.87;17.13;;;13.40;42.40;;;;;;10380912;28;20256;-71
2024/03/19 02:34:48;;;;;;;17.50;15.63;;;13.40;42.80;;;;;;10383957;28;20315;-71
2024/03/19 02:39:52;;;;;;;16.87;15.30;;;13.30;42.10;;;;;;10398079;28;20312;-71
2024/03/19 02:44:54;;;;;;;16.20;14.63;;;13.30;42.50;;;;;;10386034;28;20252;-71
2024/03/19 02:49:56;;;;;;;17.67;16.07;;;13.20;42.20;;;;;;10382758;28;20261;-71
2024/03/19 02:54:59;;;;;;;17.03;15.40;;;13.20;42.20;;;;;;10387072;28;20253;-71
2024/03/19 03:00:06;;;;;;;16.60;15.17;;;13.20;42.70;;;;;;10387518;28;20249;-70
2024/03/19 03:05:10;;;;;;;18.73;16.40;;;13.20;42.30;;;;;;10382116;28;20253;-71
2024/03/19 03:10:13;;;;;;;18.23;16.53;;;13.10;42.30;;;;;;10385690;28;20258;-71
2024/03/19 03:15:16;;;;;;;18.67;16.77;;;13.10;43.40;;;;;;10391064;28;20333;-71
2024/03/19 03:20:18;;;;;;;18.40;16.57;;;13.00;42.50;;;;;;10392986;28;20308;-71
2024/03/19 03:25:21;;;;;;;15.13;13.83;;;13.00;42.60;;;;;;10380307;28;20253;-71
2024/03/19 03:30:24;;;;;;;15.43;13.83;;;13.00;42.60;;;;;;10385688;28;20245;-71
2024/03/19 03:35:27;;;;;;;14.87;13.47;;;13.00;42.60;;;;;;10382745;28;20254;-71
2024/03/19 03:40:30;;;;;;;14.93;13.63;;;13.00;42.60;;;;;;10376522;28;20250;-71
2024/03/19 03:45:33;;;;;;;16.20;14.70;;;13.00;42.60;;;;;;10388210;28;20249;-71
2024/03/19 03:50:35;;;;;;;13.23;11.93;;;13.00;42.20;;;;;;10383140;28;20262;-71
2024/03/19 03:55:39;;;;;;;16.33;14.77;;;13.00;42.10;;;;;;10386097;28;20747;-71
2024/03/19 04:00:45;;;;;;;17.63;16.00;;;13.00;42.50;;;;;;10386088;28;21002;-71
2024/03/19 04:05:48;;;;;;;16.07;14.73;;;13.00;42.60;;;;;;10392702;28;20245;-71
2024/03/19 04:10:52;;;;;;;17.27;15.67;;;12.90;42.20;;;;;;10383686;28;20253;-71
2024/03/19 04:15:56;;;;;;;18.13;16.33;;;12.90;42.40;;;;;;10388662;28;20719;-71
2024/03/19 04:20:59;;;;;;;21.17;17.50;;;12.90;41.90;;;;;;10378950;28;20252;-71
2024/03/19 04:26:03;;;;;;;16.43;14.80;;;12.80;41.90;;;;;;10385953;28;20249;-71
2024/03/19 04:31:05;;;;;;;15.63;14.10;;;12.70;42.70;;;;;;10359853;28;20675;-71
2024/03/19 04:36:08;;;;;;;17.60;16.10;;;12.70;42.30;;;;;;10353263;28;20280;-71
2024/03/19 04:41:13;;;;;;;14.53;13.03;;;12.70;43.10;;;;;;10350972;28;20260;-71
2024/03/19 04:46:15;;;;;;;14.33;12.93;;;12.60;42.20;;;;;;10344898;28;20243;-71
2024/03/19 04:51:18;;;;;;;22.60;18.00;;;12.60;42.20;;;;;;10358413;28;20316;-71
2024/03/19 04:56:22;;;;;;;18.93;17.13;;;12.60;42.20;;;;;;10356999;28;20991;-71
2024/03/19 05:01:27;;;;;;;16.73;14.93;;;12.60;42.20;;;;;;10341798;28;20253;-70
2024/03/19 05:06:29;;;;;;;15.20;13.70;;;12.60;42.80;;;;;;10359691;28;20255;-71
2024/03/19 05:11:33;;;;;;;17.17;15.57;;;12.50;41.80;;;;;;10348029;28;20262;-71
2024/03/19 05:16:35;;;;;;;15.67;14.23;;;12.50;42.10;;;;;;10347570;28;20348;-71
2024/03/19 05:21:38;;;;;;;17.10;15.40;;;12.40;41.80;;;;;;10346076;28;20257;-71
2024/03/19 05:26:42;;;;;;;16.37;14.57;;;12.40;42.00;;;;;;10352625;28;20268;-71
2024/03/19 05:31:44;;;;;;;16.70;15.00;;;12.30;42.00;;;;;;10369213;28;20255;-71
2024/03/19 05:36:46;;;;;;;17.07;15.47;;;12.30;42.00;;;;;;10336405;28;20258;-71
2024/03/19 05:41:50;;;;;;;16.43;14.90;;;12.30;42.00;;;;;;10342725;28;20269;-71
2024/03/19 05:46:52;;;;;;;16.40;14.90;;;12.30;42.00;;;;;;10347819;28;20265;-71
2024/03/19 05:51:55;;;;;;;15.60;14.20;;;12.20;41.90;;;;;;10344563;28;20317;-71
2024/03/19 05:56:59;;;;;;;16.30;14.80;;;12.20;41.90;;;;;;10336713;28;20325;-71
2024/03/19 06:02:05;;;;;;;16.30;14.80;;;12.10;41.80;;;;;;10348106;28;20330;-71
2024/03/19 06:07:08;;;;;;;17.30;15.67;;;12.10;41.80;;;;;;10373527;28;20249;-70
2024/03/19 06:12:11;;;;;;;15.70;14.17;;;12.20;41.90;;;;;;10382945;28;20326;-79
2024/03/19 06:17:14;;;;;;;18.13;16.53;;;12.20;41.90;;;;;;10377979;28;20308;-71
2024/03/19 06:22:16;;;;;;;16.47;14.97;;;12.20;41.90;;;;;;10374752;28;20277;-70
2024/03/19 06:27:19;;;;;;;15.80;14.40;;;12.20;41.90;;;;;;10375408;28;20287;-71
2024/03/19 06:32:22;;;;;;;23.63;21.23;;;12.30;42.40;;;;;;10374894;28;20257;-71
2024/03/19 06:37:24;;;;;;;23.67;21.37;;;12.30;42.20;;;;;;10379060;28;20256;-71
2024/03/19 06:42:27;;;;;;;22.63;20.33;;;12.20;42.40;;;;;;10382104;28;20250;-70
2024/03/19 06:47:30;;;;;;;22.03;19.70;;;12.20;43.20;;;;;;10393392;28;20259;-71
2024/03/19 06:52:32;;;;;;;23.67;21.30;;;12.20;43.20;;;;;;10384743;28;20250;-71
2024/03/19 06:57:36;;;;;;;21.70;19.50;;;12.20;43.50;;;;;;10396998;28;20810;-71
2024/03/19 07:02:39;;;;;;;21.80;19.70;;;12.30;44.10;;;;;;10382157;28;20416;-69
2024/03/19 07:07:41;;;;;;;21.17;19.17;;;12.30;43.70;;;;;;10379928;28;20383;-69
2024/03/19 07:12:45;;;;;;;18.77;16.97;;;12.40;44.10;;;;;;10356612;28;20242;-69
2024/03/19 07:17:49;;;;;;;20.43;18.37;;;12.30;44.60;;;;;;10345992;28;20626;-69
2024/03/19 07:22:52;;;;;;;19.03;17.20;;;12.30;44.30;;;;;;10340985;28;20243;-70
2024/03/19 07:27:55;;;;;;;19.83;17.93;;;12.40;44.30;;;;;;10339875;28;20317;-70
2024/03/19 07:32:59;;;;;;;22.33;20.33;;;12.50;44.80;;;;;;10352972;28;20250;-69
2024/03/19 07:38:01;;;;;;;18.97;16.97;;;12.60;44.50;;;;;;10351695;28;20250;-69
2024/03/19 07:43:05;;;;;;;19.53;17.70;;;12.60;44.50;;;;;;10379943;28;20324;-69
2024/03/19 07:48:07;;;;;;;19.70;17.77;;;12.70;45.00;;;;;;10383680;28;20263;-69
2024/03/19 07:53:10;;;;;;;20.17;18.27;;;12.80;44.50;;;;;;10370353;28;20295;-69
2024/03/19 07:58:13;;;;;;;18.70;16.87;;;12.90;44.30;;;;;;10361677;28;20253;-69
2024/03/19 08:03:17;;;;;;;18.73;16.93;;;13.00;44.50;;;;;;10339758;28;20790;-69
2024/03/19 08:08:19;;;;;;;17.83;16.03;;;13.10;44.30;;;;;;10339960;28;20256;-69
2024/03/19 08:13:23;;;;;;;19.30;17.43;;;13.20;44.10;;;;;;10342492;28;21044;-69
2024/03/19 08:18:25;;;;;;;18.43;16.70;;;13.20;44.20;;;;;;10345343;28;20317;-69
2024/03/19 08:23:27;;;;;;;19.43;17.53;;;13.30;44.10;;;;;;10346530;28;20320;-69
2024/03/19 08:28:32;;;;;;;18.90;17.07;;;13.30;43.90;;;;;;10340565;28;20247;-69
2024/03/19 08:33:34;;;;;;;17.97;16.37;;;13.30;44.30;;;;;;10343001;28;20261;-69
2024/03/19 08:38:37;;;;;;;18.37;16.37;;;13.40;44.30;;;;;;10341219;28;20250;-69
2024/03/19 08:43:45;;;;;;;17.33;15.73;;;13.40;44.30;;;;;;10347071;28;20258;-69
2024/03/19 08:48:48;;;;;;;17.53;15.83;;;13.50;44.60;;;;;;10337863;28;20394;-69
2024/03/19 08:53:50;;;;;;;17.07;15.37;;;13.60;44.20;;;;;;10341335;28;20257;-69
2024/03/19 08:58:54;;;;;;;16.37;14.87;;;13.60;44.00;;;;;;10341954;28;20253;-69
2024/03/19 09:03:57;;;;;;;17.17;15.57;;;13.70;44.40;;;;;;10332581;28;21044;-69
2024/03/19 09:08:59;;;;;;;16.03;14.63;;;13.70;44.20;;;;;;10338680;28;20301;-69
2024/03/19 09:14:03;;;;;;;16.33;14.83;;;13.80;43.70;;;;;;10351976;28;20775;-68
2024/03/19 09:19:05;;;;;;;14.87;13.47;;;13.80;43.70;;;;;;10336686;28;20265;-69
2024/03/19 09:24:08;;;;;;;13.87;12.67;;;13.80;44.10;;;;;;10339985;28;20305;-69
2024/03/19 09:29:11;;;;;;;13.60;12.40;;;13.90;43.70;;;;;;10339705;28;20339;-69
2024/03/19 09:34:13;;;;;;;12.37;11.27;;;14.10;44.20;;;;;;10341231;28;20263;-69
2024/03/19 09:39:16;;;;;;;12.03;10.93;;;14.20;44.30;;;;;;10338730;28;20266;-69
2024/03/19 09:44:19;;;;;;;12.10;11.00;;;14.40;44.20;;;;;;10334076;28;20269;-70
2024/03/19 09:49:22;;;;;;;11.63;10.63;;;14.70;44.80;;;;;;10340932;28;20254;-69
2024/03/19 09:54:25;;;;;;;10.80;9.90;;;14.90;43.90;;;;;;10352704;28;20304;-70
2024/03/19 09:59:29;;;;;;;10.87;9.90;;;15.10;43.80;;;;;;10337759;28;20321;-69
2024/03/19 10:04:31;;;;;;;11.03;10.03;;;15.30;43.40;;;;;;10350938;28;20300;-69
2024/03/19 10:09:33;;;;;;;10.87;9.87;;;15.50;42.30;;;;;;10332054;28;20270;-70
2024/03/19 10:14:37;;;;;;;10.27;9.37;;;15.60;42.00;;;;;;10332641;28;21025;-69
2024/03/19 10:19:40;;;;;;;9.50;8.70;;;15.60;42.10;;;;;;10342312;28;21595;-70
2024/03/19 10:24:47;;;;;;;8.27;7.57;;;15.70;42.20;;;;;;10348933;28;20249;-70
2024/03/19 10:29:51;;;;;;;8.93;8.17;;;15.90;41.30;;;;;;10374356;28;20771;-70
2024/03/19 10:34:54;;;;;;;8.67;7.97;;;16.10;41.70;;;;;;10387896;28;20284;-69
2024/03/19 10:39:57;;;;;;;7.87;7.07;;;16.20;40.70;;;;;;10346379;28;20262;-69
2024/03/19 10:45:03;;;;;;;7.67;6.97;;;16.30;40.70;;;;;;10350178;28;20243;-69
2024/03/19 10:50:06;;;;;;;8.07;7.40;;;16.40;40.40;;;;;;10353834;28;20254;-70
2024/03/19 10:55:13;;;;;;;7.27;6.67;;;16.50;40.30;;;;;;10339641;28;20245;-70
2024/03/19 11:00:25;;;;;;;7.10;6.50;;;16.60;40.00;;;;;;10339502;28;20270;-70
2024/03/19 11:05:28;;;;;;;7.10;6.50;;;16.80;39.60;;;;;;10338339;28;20257;-70
2024/03/19 11:10:32;;;;;;;6.53;6.00;;;17.10;40.30;;;;;;10340896;28;20307;-70
2024/03/19 11:15:37;;;;;;;6.23;5.73;;;17.30;39.40;;;;;;10343680;28;20312;-70
2024/03/19 11:20:44;;;;;;;6.87;6.37;;;17.40;39.10;;;;;;10342342;28;20246;-70
2024/03/19 11:25:47;;;;;;;7.10;6.50;;;17.50;39.50;;;;;;10346297;28;20261;-70
2024/03/19 11:30:55;;;;;;;6.20;5.70;;;17.70;39.50;;;;;;10344603;28;20253;-70
2024/03/19 11:35:58;;;;;;;5.50;5.10;;;17.90;38.10;;;;;;10372387;28;21102;-70
2024/03/19 11:41:00;;;;;;;5.83;5.33;;;18.00;39.00;;;;;;10376128;28;20305;-70
2024/03/19 11:46:04;;;;;;;5.30;4.90;;;18.20;38.60;;;;;;10360136;28;20317;-70
2024/03/19 11:51:07;;;;;;;4.80;4.40;;;18.20;37.60;;;;;;10339989;28;20321;-70
2024/03/19 11:56:11;;;;;;;5.23;4.83;;;18.30;38.00;;;;;;10333472;28;20361;-70
2024/03/19 12:01:15;;;;;;;4.00;3.70;;;18.30;36.50;;;;;;10332774;28;20312;-70
2024/03/19 12:06:17;;;;;;;4.13;3.73;;;18.30;36.00;;;;;;10348303;28;20762;-70
2024/03/19 12:11:20;;;;;;;4.33;4.03;;;18.30;36.60;;;;;;10348482;28;20254;-70
2024/03/19 12:16:26;;;;;;;3.87;3.57;;;18.30;36.70;;;;;;10345263;28;20273;-70
2024/03/19 12:21:28;;;;;;;4.23;3.93;;;18.40;36.30;;;;;;10339918;28;20254;-70
2024/03/19 12:26:31;;;;;;;4.07;3.77;;;18.30;35.90;;;;;;10341906;28;20285;-69
2024/03/19 12:31:37;;;;;;;3.50;3.20;;;18.30;36.40;;;;;;10348418;28;20254;-69
2024/03/19 12:36:39;;;;;;;3.80;3.33;;;18.20;35.00;;;;;;10356448;28;20327;-69
2024/03/19 12:41:42;;;;;;;3.20;2.90;;;18.20;35.90;;;;;;10343365;28;20250;-69
2024/03/19 12:46:45;;;;;;;4.20;3.80;;;18.20;35.90;;;;;;10345633;28;20266;-69
2024/03/19 12:51:48;;;;;;;3.77;3.47;;;18.20;35.20;;;;;;10341879;28;20654;-69
2024/03/19 12:56:50;;;;;;;3.13;2.93;;;18.20;35.70;;;;;;10346399;28;20321;-69
2024/03/19 13:01:54;;;;;;;3.03;2.60;;;18.20;35.40;;;;;;10351282;28;20290;-69
2024/03/19 13:06:56;;;;;;;2.70;2.50;;;18.10;34.80;;;;;;10341235;28;20377;-69
2024/03/19 13:11:58;;;;;;;3.00;2.70;;;18.10;35.40;;;;;;10339197;28;20254;-69
2024/03/19 13:17:02;;;;;;;2.30;2.20;;;18.10;34.90;;;;;;10333974;28;20322;-69
2024/03/19 13:22:04;;;;;;;2.67;2.47;;;18.20;34.90;;;;;;10342185;28;20265;-69
2024/03/19 13:27:07;;;;;;;2.73;2.40;;;18.20;34.90;;;;;;10349411;28;20279;-69
2024/03/19 13:32:10;;;;;;;3.37;2.40;;;18.30;35.00;;;;;;10377763;28;20327;-69
2024/03/19 13:37:13;;;;;;;2.70;2.50;;;18.30;34.60;;;;;;10380763;28;20742;-69
2024/03/19 13:42:15;;;;;;;2.93;2.40;;;18.40;35.10;;;;;;10372127;28;20251;-70
2024/03/19 13:47:19;;;;;;;2.73;2.53;;;18.40;35.10;;;;;;10380102;28;20263;-69
2024/03/19 13:52:21;;;;;;;2.40;2.20;;;18.40;33.70;;;;;;10379181;28;20855;-69
2024/03/19 13:57:24;;;;;;;2.10;1.90;;;18.50;34.40;;;;;;10379676;28;20249;-70
2024/03/19 14:02:27;;;;;;;2.40;2.20;;;18.50;34.40;;;;;;10378785;28;20253;-70
2024/03/19 14:07:34;;;;;;;2.17;2.07;;;18.60;33.50;;;;;;10313748;28;1924611;-69
2024/03/19 14:12:38;;;;;;;2.00;1.90;;;18.60;34.40;;;;;;10378312;28;20300;-69
2024/03/19 14:17:45;;;;;;;1.90;1.80;;;18.60;34.10;;;;;;10368945;28;20356;-69
2024/03/19 14:22:48;;;;;;;2.27;2.07;;;18.60;33.10;;;;;;10380802;28;20315;-69
2024/03/19 14:27:50;;;;;;;1.63;1.53;;;18.60;33.60;;;;;;10374784;28;20246;-69
2024/03/19 14:32:56;;;;;;;1.70;1.60;;;18.60;33.50;;;;;;10380415;28;20246;-69
2024/03/19 14:37:58;;;;;;;1.53;1.43;;;18.60;32.60;;;;;;10380894;28;20307;-69
2024/03/19 14:43:00;;;;;;;2.03;1.50;;;18.60;33.30;;;;;;10375336;28;20304;-69
2024/03/19 14:48:04;;;;;;;1.50;1.40;;;18.60;33.10;;;;;;10376301;28;20305;-69
2024/03/19 14:53:06;;;;;;;1.77;1.63;;;18.60;32.30;;;;;;10374637;28;20277;-77
2024/03/19 14:58:08;;;;;;;1.70;1.60;;;18.70;32.90;;;;;;10375301;28;20280;-69
2024/03/19 15:03:13;;;;;;;1.60;1.50;;;18.70;32.60;;;;;;10374484;28;20258;-68
2024/03/19 15:08:15;;;;;;;2.30;1.80;;;18.60;32.00;;;;;;10381936;28;20307;-69
2024/03/19 15:13:17;;;;;;;1.70;1.60;;;18.70;32.70;;;;;;10384855;28;20317;-69
2024/03/19 15:18:22;;;;;;;2.23;1.50;;;18.70;32.50;;;;;;10374397;28;20254;-69
2024/03/19 15:23:24;;;;;;;1.70;1.60;;;18.70;31.60;;;;;;10386948;28;20279;-69
2024/03/19 15:28:26;;;;;;;1.73;1.63;;;18.80;31.90;;;;;;10383325;28;20300;-69
2024/03/19 15:33:30;;;;;;;1.87;1.77;;;18.80;32.10;;;;;;10379736;28;20295;-69
2024/03/19 15:38:32;;;;;;;2.10;1.70;;;18.80;31.40;;;;;;10378756;28;20241;-69
2024/03/19 15:43:35;;;;;;;1.80;1.70;;;18.80;31.80;;;;;;10379406;28;20763;-69
2024/03/19 15:48:39;;;;;;;1.60;1.50;;;18.80;31.80;;;;;;10381369;28;20269;-69
2024/03/19 15:53:41;;;;;;;1.87;1.77;;;18.80;31.40;;;;;;10380596;28;20249;-68
2024/03/19 15:58:43;;;;;;;4.07;2.03;;;18.80;31.90;;;;;;10382499;28;20837;-71
2024/03/19 16:03:47;;;;;;;3.23;2.17;;;18.80;33.50;;;;;;10381972;28;20233;-72
2024/03/19 16:08:49;;;;;;;4.50;2.83;;;18.80;34.00;;;;;;10377259;28;20263;-69
2024/03/19 16:13:51;;;;;;;3.27;2.03;;;18.90;33.30;;;;;;10380668;28;20300;-69
2024/03/19 16:18:55;;;;;;;1.90;1.80;;;19.00;32.70;;;;;;10380149;28;20352;-70
2024/03/19 16:23:58;;;;;;;2.00;1.73;;;19.00;32.20;;;;;;10380088;28;20299;-69
2024/03/19 16:29:00;;;;;;;2.43;2.07;;;18.90;32.30;;;;;;10379278;28;20249;-69
2024/03/19 16:34:04;;;;;;;3.50;2.20;;;18.90;32.50;;;;;;10379312;28;20925;-69
2024/03/19 16:39:08;;;;;;;3.00;2.10;;;18.90;32.30;;;;;;10380496;28;20249;-69
2024/03/19 16:44:11;;;;;;;2.30;2.10;;;18.80;32.40;;;;;;10381720;28;20253;-70
2024/03/19 16:49:14;;;;;;;3.57;3.27;;;18.80;32.70;;;;;;10387218;28;20277;-70
2024/03/19 16:54:17;;;;;;;6.00;5.40;;;18.80;32.30;;;;;;10384687;28;20699;-70
2024/03/19 16:59:19;;;;;;;5.20;4.40;;;18.80;32.50;;;;;;10378593;28;20711;-70
2024/03/19 17:04:23;;;;;;;3.03;2.73;;;18.80;32.50;;;;;;10385728;28;20665;-70
2024/03/19 17:09:25;;;;;;;2.40;2.20;;;18.80;31.80;;;;;;10377295;28;20254;-71
2024/03/19 17:14:27;;;;;;;2.83;2.57;;;18.80;32.80;;;;;;10383226;28;20283;-70
2024/03/19 17:19:31;;;;;;;4.73;2.80;;;18.70;32.60;;;;;;10387443;28;20260;-70
2024/03/19 17:24:34;;;;;;;3.87;2.87;;;18.60;32.10;;;;;;10390042;28;20250;-69
2024/03/19 17:29:36;;;;;;;3.17;2.87;;;18.50;32.30;;;;;;10383414;28;20249;-69
2024/03/19 17:34:40;;;;;;;3.10;2.80;;;18.40;32.40;;;;;;10380476;28;20276;-70
2024/03/19 17:39:42;;;;;;;2.60;2.40;;;18.30;32.00;;;;;;10382105;28;20261;-70
2024/03/19 17:44:44;;;;;;;3.57;3.27;;;18.20;32.30;;;;;;10383094;28;20241;-70
2024/03/19 17:49:48;;;;;;;3.53;3.23;;;18.10;32.40;;;;;;10383714;28;20311;-70
2024/03/19 17:54:50;;;;;;;4.00;3.40;;;18.00;32.10;;;;;;10371262;28;20348;-70
2024/03/19 17:59:53;;;;;;;3.40;3.20;;;17.90;32.30;;;;;;10381738;28;20258;-70
2024/03/19 18:04:58;;;;;;;4.00;3.60;;;17.80;32.20;;;;;;10385299;28;20239;-70
2024/03/19 18:10:02;;;;;;;21.10;11.83;;;17.70;32.40;;;;;;10384584;28;20252;-70
2024/03/19 18:15:08;;;;;;;20.10;12.20;;;17.60;32.70;;;;;;10369628;28;20731;-69
2024/03/19 18:20:16;;;;;;;25.90;15.87;;;17.40;32.70;;;;;;10346746;28;20257;-70
2024/03/19 18:25:20;;;;;;;13.87;9.80;;;17.30;32.40;;;;;;10337252;28;20316;-70
2024/03/19 18:30:22;;;;;;;10.87;8.70;;;17.20;33.20;;;;;;10337579;28;20320;-68
2024/03/19 18:35:26;;;;;;;13.90;9.50;;;17.10;33.30;;;;;;10350402;28;20246;-69
2024/03/19 18:40:28;;;;;;;9.37;7.40;;;17.00;33.20;;;;;;10347184;28;20778;-69
2024/03/19 18:45:30;;;;;;;13.60;9.03;;;17.00;33.30;;;;;;10348861;28;20304;-69
2024/03/19 18:50:34;;;;;;;10.37;8.67;;;16.90;33.10;;;;;;10345553;28;20794;-70
2024/03/19 18:55:36;;;;;;;11.57;9.90;;;16.80;33.40;;;;;;10343913;28;20716;-70
2024/03/19 19:00:39;;;;;;;11.13;10.00;;;16.70;33.60;;;;;;10345929;28;20329;-70
2024/03/19 19:05:42;;;;;;;12.10;10.80;;;16.60;33.50;;;;;;10358335;28;20250;-70
2024/03/19 19:10:45;;;;;;;9.93;8.93;;;16.50;33.40;;;;;;10340320;28;20934;-70
2024/03/19 19:15:50;;;;;;;11.20;9.87;;;16.40;33.30;;;;;;10353915;28;20328;-70
2024/03/19 19:20:53;;;;;;;9.27;8.37;;;16.40;33.30;;;;;;10372450;28;20309;-70
2024/03/19 19:25:56;;;;;;;10.60;9.60;;;16.20;33.20;;;;;;10362350;28;20356;-70
2024/03/19 19:30:58;;;;;;;9.97;8.97;;;16.10;33.10;;;;;;10367083;28;20316;-70
2024/03/19 19:36:01;;;;;;;11.17;9.43;;;16.00;33.00;;;;;;10366752;28;20369;-70
2024/03/19 19:41:07;;;;;;;10.90;9.73;;;15.90;33.10;;;;;;10367426;28;20660;-70
2024/03/19 19:46:10;;;;;;;43.50;28.70;;;15.80;33.30;;;;;;10368613;28;20348;-70
2024/03/19 19:51:13;;;;;;;51.03;32.03;;;15.70;33.00;;;;;;10361072;28;20363;-70
2024/03/19 19:56:16;;;;;;;48.00;31.30;;;15.50;33.40;;;;;;10367998;28;20300;-70
2024/03/19 20:01:19;;;;;;;36.20;26.37;;;15.40;33.40;;;;;;10375920;28;20326;-70
2024/03/19 20:06:23;;;;;;;21.40;17.10;;;15.30;33.60;;;;;;10378063;28;20257;-70
2024/03/19 20:11:25;;;;;;;19.20;15.87;;;15.30;33.70;;;;;;10376808;28;20254;-70
2024/03/19 20:16:27;;;;;;;17.00;13.87;;;15.20;33.70;;;;;;10372835;28;20253;-70
2024/03/19 20:21:33;;;;;;;14.80;12.90;;;15.10;33.80;;;;;;10369615;28;20312;-71
2024/03/19 20:26:36;;;;;;;17.03;14.20;;;15.10;34.00;;;;;;10378797;28;20237;-71
2024/03/19 20:31:39;;;;;;;17.13;13.20;;;15.00;33.90;;;;;;10381332;28;20254;-71
2024/03/19 20:36:42;;;;;;;16.50;12.30;;;15.00;33.90;;;;;;10385504;28;20257;-71
2024/03/19 20:41:44;;;;;;;11.30;9.83;;;14.90;33.90;;;;;;10384214;28;20264;-71
2024/03/19 20:46:47;;;;;;;10.10;9.10;;;14.80;33.80;;;;;;10372624;28;20269;-71
2024/03/19 20:51:51;;;;;;;10.57;9.50;;;14.80;34.00;;;;;;10343965;28;20253;-71
2024/03/19 20:56:54;;;;;;;8.87;8.07;;;14.70;34.00;;;;;;10346685;28;20992;-71
2024/03/19 21:01:56;;;;;;;9.90;9.07;;;14.60;34.00;;;;;;10344056;28;20255;-71
2024/03/19 21:07:00;;;;;;;10.23;9.23;;;14.50;34.00;;;;;;10349679;28;20300;-71
2024/03/19 21:12:02;;;;;;;8.33;7.63;;;14.40;34.30;;;;;;10373910;28;20265;-71
2024/03/19 21:17:05;;;;;;;8.77;7.97;;;14.40;34.10;;;;;;10381472;28;20301;-71
2024/03/19 21:22:09;;;;;;;10.80;9.80;;;14.40;34.20;;;;;;10398790;28;20742;-71
2024/03/19 21:27:12;;;;;;;9.47;8.47;;;14.30;34.30;;;;;;10357515;28;20265;-71
2024/03/19 21:32:14;;;;;;;9.47;8.57;;;14.20;34.20;;;;;;10350864;28;20330;-72
2024/03/19 21:37:18;;;;;;;9.40;8.40;;;14.20;34.30;;;;;;10380264;28;20282;-71
2024/03/19 21:42:20;;;;;;;11.03;9.43;;;14.20;34.40;;;;;;10374225;28;20868;-71
2024/03/19 21:47:22;;;;;;;10.93;9.17;;;14.10;34.40;;;;;;10346442;28;20245;-71
2024/03/19 21:52:26;;;;;;;13.73;12.33;;;14.10;34.30;;;;;;10343419;28;20261;-71
2024/03/19 21:57:31;;;;;;;10.40;9.40;;;14.00;34.20;;;;;;10337024;28;20701;-71
2024/03/19 22:02:33;;;;;;;11.77;9.80;;;13.90;34.10;;;;;;10355127;28;20626;-71
2024/03/19 22:07:40;;;;;;;13.60;12.20;;;13.80;34.20;;;;;;10341385;28;20301;-71
2024/03/19 22:12:42;;;;;;;12.13;10.93;;;13.60;34.10;;;;;;10366253;28;20269;-71
2024/03/19 22:17:44;;;;;;;11.23;10.03;;;13.50;34.30;;;;;;10353987;28;20254;-72
2024/03/19 22:22:48;;;;;;;10.30;9.30;;;13.50;34.50;;;;;;10371542;28;20276;-71
2024/03/19 22:27:51;;;;;;;10.50;8.90;;;13.40;34.60;;;;;;10347864;28;20704;-71
2024/03/19 22:32:53;;;;;;;10.00;8.90;;;13.30;34.60;;;;;;10381148;28;20269;-71
2024/03/19 22:37:58;;;;;;;8.93;8.00;;;13.20;34.60;;;;;;10350675;28;20887;-71
2024/03/19 22:43:01;;;;;;;8.57;7.63;;;13.20;34.60;;;;;;10347125;28;20655;-71
2024/03/19 22:48:03;;;;;;;9.70;8.70;;;13.20;34.60;;;;;;10345803;28;20247;-71
2024/03/19 22:53:06;;;;;;;9.87;8.50;;;13.10;34.50;;;;;;10348606;28;20716;-71
2024/03/19 22:58:09;;;;;;;9.47;8.47;;;13.10;34.60;;;;;;10347086;28;20269;-71
2024/03/19 23:03:12;;;;;;;9.63;8.07;;;13.00;34.60;;;;;;10387616;28;20261;-71
2024/03/19 23:08:15;;;;;;;8.43;7.57;;;12.90;34.50;;;;;;10387457;28;20252;-71
2024/03/19 23:13:18;;;;;;;9.50;7.43;;;12.90;34.60;;;;;;10387905;28;20285;-71
2024/03/19 23:18:21;;;;;;;7.27;6.50;;;12.90;34.60;;;;;;10385784;28;20280;-72
2024/03/19 23:23:24;;;;;;;8.90;8.10;;;12.80;34.60;;;;;;10386756;28;20265;-71
2024/03/19 23:28:28;;;;;;;7.60;6.90;;;12.80;34.70;;;;;;10385071;28;20635;-72
2024/03/19 23:33:30;;;;;;;7.03;6.33;;;12.70;34.60;;;;;;10385270;28;20723;-72
2024/03/19 23:38:34;;;;;;;8.00;6.93;;;12.60;34.50;;;;;;10383010;28;20276;-71
2024/03/19 23:43:36;;;;;;;9.50;7.43;;;12.60;34.70;;;;;;10387492;28;20250;-71
2024/03/19 23:48:38;;;;;;;8.07;7.27;;;12.50;34.60;;;;;;10377887;28;20261;-71
2024/03/19 23:53:42;;;;;;;8.83;7.67;;;12.50;34.60;;;;;;10380455;28;20254;-71
2024/03/19 23:58:44;;;;;;;7.83;7.10;;;12.40;34.60;;;;;;10387999;28;20295;-71
